Time;durP1;ratioP1;P1;durP2;ratioP2;P2;SDS_P1;SDS_P2;PMS_P1;PMS_P2;Temp;Humidity;BMP_temperature;BMP_pressure;BME280_temperature;BME280_humidity;BME280_pressure;Samples;Min_cycle;Max_cycle;Signal;HPM_P1;HPM_P2
2023/02/03 00:00:30;;;;;;;6.93;3.03;;;;;;;;;;5012372;28;20509;-76
2023/02/03 00:02:57;;;;;;;5.65;2.67;;;;;;;;;;5015387;28;20512;-75
2023/02/03 00:05:24;;;;;;;6.68;2.55;;;;;;;;;;5015598;28;20046;-76
2023/02/03 00:07:51;;;;;;;6.28;2.90;;;;;;;;;;5015465;28;20081;-76
2023/02/03 00:10:20;;;;;;;7.60;3.17;;;;;;;;;;5015298;28;20128;-76
2023/02/03 00:12:47;;;;;;;5.80;2.80;;;;;;;;;;5015552;28;20061;-76
2023/02/03 00:15:13;;;;;;;7.57;2.90;;;;;;;;;;5016090;28;20045;-75
2023/02/03 00:17:41;;;;;;;6.72;2.60;;;;;;;;;;4999550;28;20037;-75
2023/02/03 00:20:09;;;;;;;6.07;2.70;;;;;;;;;;5015711;28;20084;-76
2023/02/03 00:22:36;;;;;;;5.80;2.47;;;;;;;;;;5015079;28;20049;-75
2023/02/03 00:25:03;;;;;;;9.88;2.90;;;;;;;;;;5015257;28;20046;-75
2023/02/03 00:27:29;;;;;;;5.30;2.25;;;;;;;;;;5015283;28;20129;-75
2023/02/03 00:29:56;;;;;;;5.97;2.50;;;;;;;;;;5015059;28;20088;-76
2023/02/03 00:32:22;;;;;;;5.32;2.70;;;;;;;;;;5014656;28;20568;-75
2023/02/03 00:34:50;;;;;;;6.95;3.05;;;;;;;;;;5015434;28;20469;-75
2023/02/03 00:37:17;;;;;;;7.30;3.03;;;;;;;;;;5015882;28;20046;-76
2023/02/03 00:39:44;;;;;;;4.85;2.15;;;;;;;;;;5015658;28;20046;-74
2023/02/03 00:42:10;;;;;;;7.55;2.67;;;;;;;;;;5014891;28;20164;-75
2023/02/03 00:44:37;;;;;;;6.68;2.40;;;;;;;;;;5014842;28;20420;-75
2023/02/03 00:47:04;;;;;;;6.15;2.50;;;;;;;;;;5015399;28;20135;-74
2023/02/03 00:49:30;;;;;;;3.97;2.38;;;;;;;;;;5014950;28;20125;-75
2023/02/03 00:51:58;;;;;;;6.53;3.08;;;;;;;;;;5014954;28;20050;-76
2023/02/03 00:54:25;;;;;;;8.55;2.70;;;;;;;;;;5014466;28;20046;-73
2023/02/03 00:56:52;;;;;;;5.97;2.70;;;;;;;;;;5014663;28;20467;-75
2023/02/03 00:59:18;;;;;;;6.68;2.78;;;;;;;;;;5015085;28;20073;-75
2023/02/03 01:01:45;;;;;;;5.05;2.58;;;;;;;;;;5014519;28;20424;-75
2023/02/03 01:04:12;;;;;;;5.75;2.50;;;;;;;;;;5014613;28;20141;-76
2023/02/03 01:06:40;;;;;;;5.72;2.28;;;;;;;;;;5014681;28;20048;-74
2023/02/03 01:09:08;;;;;;;7.40;2.67;;;;;;;;;;5014103;28;20042;-75
2023/02/03 01:11:35;;;;;;;8.23;2.72;;;;;;;;;;5012976;28;20135;-75
2023/02/03 01:14:02;;;;;;;5.25;2.30;;;;;;;;;;5014648;28;20081;-75
2023/02/03 01:16:30;;;;;;;6.30;2.40;;;;;;;;;;5014461;28;20057;-76
2023/02/03 01:18:57;;;;;;;5.90;2.25;;;;;;;;;;5013904;28;20052;-75
2023/02/03 01:21:25;;;;;;;5.93;2.40;;;;;;;;;;5014301;28;20104;-74
2023/02/03 01:23:53;;;;;;;6.28;2.83;;;;;;;;;;5014248;28;20060;-74
2023/02/03 01:26:22;;;;;;;5.78;2.53;;;;;;;;;;5014465;28;20050;-74
2023/02/03 01:28:53;;;;;;;7.30;2.38;;;;;;;;;;5014234;28;20045;-74
2023/02/03 01:31:21;;;;;;;;;;;;;;;;;;5014582;28;20050;-75
2023/02/03 01:33:48;;;;;;;4.65;2.03;;;;;;;;;;5013574;28;20370;-74
2023/02/03 01:36:16;;;;;;;6.43;2.10;;;;;;;;;;5014360;28;20082;-75
2023/02/03 01:38:43;;;;;;;4.88;2.40;;;;;;;;;;5014467;28;20659;-76
2023/02/03 01:41:12;;;;;;;5.07;2.00;;;;;;;;;;5014342;28;20125;-75
2023/02/03 01:43:42;;;;;;;7.10;2.30;;;;;;;;;;5013842;28;20128;-76
2023/02/03 01:46:22;;;;;;;5.22;2.13;;;;;;;;;;5014137;28;20056;-77
2023/02/03 01:48:49;;;;;;;4.78;2.08;;;;;;;;;;5014071;28;20046;-74
2023/02/03 01:51:16;;;;;;;5.65;2.20;;;;;;;;;;5013978;28;20042;-75
2023/02/03 01:53:42;;;;;;;7.85;2.40;;;;;;;;;;5013480;28;20081;-74
2023/02/03 01:56:09;;;;;;;4.43;1.98;;;;;;;;;;5013605;28;20085;-76
2023/02/03 01:58:39;;;;;;;4.97;2.08;;;;;;;;;;5013776;28;20097;-75
2023/02/03 02:01:07;;;;;;;5.97;2.35;;;;;;;;;;5013480;28;20046;-75
2023/02/03 02:03:38;;;;;;;4.95;2.70;;;;;;;;;;5013477;28;20096;-76
2023/02/03 02:06:08;;;;;;;5.97;2.40;;;;;;;;;;5013641;28;20042;-74
2023/02/03 02:08:36;;;;;;;7.55;2.33;;;;;;;;;;5013792;28;20081;-75
2023/02/03 02:11:04;;;;;;;5.82;2.70;;;;;;;;;;5013817;28;20049;-74
2023/02/03 02:13:34;;;;;;;4.18;2.22;;;;;;;;;;5021937;28;20070;-76
2023/02/03 02:16:16;;;;;;;7.47;2.88;;;;;;;;;;5025408;28;20052;-74
2023/02/03 02:19:12;;;;;;;6.38;2.42;;;;;;;;;;5022543;28;20081;-76
2023/02/03 02:22:02;;;;;;;4.30;2.00;;;;;;;;;;5018437;28;20053;-74
2023/02/03 02:25:06;;;;;;;7.63;2.40;;;;;;;;;;4996062;28;20101;-73
2023/02/03 02:28:02;;;;;;;5.82;2.30;;;;;;;;;;5013508;28;20113;-74
2023/02/03 02:33:58;;;;;;;7.32;2.20;;;;;;;;;;5009779;28;20073;-74
2023/02/03 02:36:31;;;;;;;4.55;2.00;;;;;;;;;;5012906;28;20121;-75
2023/02/03 02:39:05;;;;;;;6.55;2.10;;;;;;;;;;5012958;28;20050;-76
2023/02/03 02:41:39;;;;;;;5.63;1.85;;;;;;;;;;5012605;28;20054;-76
2023/02/03 02:44:12;;;;;;;6.95;1.92;;;;;;;;;;5013039;28;20060;-76
2023/02/03 02:46:43;;;;;;;4.68;2.05;;;;;;;;;;5012522;28;20489;-75
2023/02/03 02:49:13;;;;;;;;;;;;;;;;;;5013134;28;20069;-76
2023/02/03 02:51:42;;;;;;;7.72;2.30;;;;;;;;;;5012368;28;19929;-76
2023/02/03 02:54:13;;;;;;;5.35;2.17;;;;;;;;;;5012347;28;20038;-76
2023/02/03 02:56:40;;;;;;;;;;;;;;;;;;5012857;28;20416;-75
2023/02/03 02:59:07;;;;;;;5.22;2.00;;;;;;;;;;5012541;28;19964;-75
2023/02/03 03:01:34;;;;;;;8.68;2.72;;;;;;;;;;5012164;28;20390;-75
2023/02/03 03:04:04;;;;;;;7.28;2.00;;;;;;;;;;5012629;28;20136;-74
2023/02/03 03:06:37;;;;;;;5.22;2.25;;;;;;;;;;5012550;28;20054;-75
2023/02/03 03:09:07;;;;;;;5.50;2.10;;;;;;;;;;5012121;28;20213;-75
2023/02/03 03:11:39;;;;;;;4.95;1.95;;;;;;;;;;5012491;28;20088;-75
2023/02/03 03:14:07;;;;;;;6.38;2.20;;;;;;;;;;5012766;28;20049;-75
2023/02/03 03:16:36;;;;;;;5.25;1.95;;;;;;;;;;5012659;28;20491;-75
2023/02/03 03:19:08;;;;;;;5.53;1.95;;;;;;;;;;5014014;28;20053;-74
2023/02/03 03:21:40;;;;;;;5.82;1.90;;;;;;;;;;5014795;28;20129;-76
2023/02/03 03:24:11;;;;;;;5.57;2.22;;;;;;;;;;5013792;28;20049;-77
2023/02/03 03:26:45;;;;;;;4.10;2.15;;;;;;;;;;5015691;28;20512;-78
2023/02/03 03:29:15;;;;;;;5.25;2.28;;;;;;;;;;5014744;28;20061;-78
2023/02/03 03:31:43;;;;;;;6.03;2.13;;;;;;;;;;5013879;28;20137;-78
2023/02/03 03:34:12;;;;;;;4.82;2.08;;;;;;;;;;5013251;28;20060;-78
2023/02/03 03:36:44;;;;;;;3.92;1.77;;;;;;;;;;5017450;28;20050;-78
2023/02/03 03:39:15;;;;;;;6.13;1.80;;;;;;;;;;5021420;28;20065;-77
2023/02/03 03:41:49;;;;;;;6.28;2.40;;;;;;;;;;5025129;28;20046;-77
2023/02/03 03:44:18;;;;;;;4.97;1.77;;;;;;;;;;5020261;28;20057;-78
2023/02/03 03:46:51;;;;;;;4.53;2.00;;;;;;;;;;5036726;22;20056;-76
2023/02/03 03:49:20;;;;;;;5.60;2.20;;;;;;;;;;5015890;28;20058;-76
2023/02/03 03:51:54;;;;;;;5.00;2.05;;;;;;;;;;5016373;28;20054;-76
2023/02/03 03:54:23;;;;;;;7.00;2.50;;;;;;;;;;5016925;28;20042;-75
2023/02/03 03:56:59;;;;;;;5.68;2.47;;;;;;;;;;5016778;28;20694;-77
2023/02/03 03:59:29;;;;;;;4.55;2.05;;;;;;;;;;5015917;28;20416;-75
2023/02/03 04:01:57;;;;;;;4.75;2.00;;;;;;;;;;5015958;28;20054;-76
2023/02/03 04:04:25;;;;;;;4.75;2.20;;;;;;;;;;5015638;28;20053;-76
2023/02/03 04:06:54;;;;;;;6.22;2.38;;;;;;;;;;5003372;28;20560;-78
2023/02/03 04:09:21;;;;;;;5.82;2.05;;;;;;;;;;5005570;28;20205;-77
2023/02/03 04:12:04;;;;;;;5.30;2.08;;;;;;;;;;5016399;28;20050;-75
2023/02/03 04:14:33;;;;;;;4.63;1.75;;;;;;;;;;5016087;28;20046;-77
2023/02/03 04:17:03;;;;;;;5.80;1.98;;;;;;;;;;5015577;28;20054;-75
2023/02/03 04:19:30;;;;;;;4.40;1.80;;;;;;;;;;5015847;28;20092;-75
2023/02/03 04:21:58;;;;;;;5.03;2.03;;;;;;;;;;5015449;28;20485;-76
2023/02/03 04:24:25;;;;;;;3.72;1.73;;;;;;;;;;5015178;28;20056;-76
2023/02/03 04:26:52;;;;;;;5.15;2.17;;;;;;;;;;5014971;28;20050;-76
2023/02/03 04:29:18;;;;;;;4.60;1.92;;;;;;;;;;5014982;28;20419;-77
2023/02/03 04:31:45;;;;;;;3.85;1.55;;;;;;;;;;5015273;28;20046;-78
2023/02/03 04:34:11;;;;;;;4.93;2.15;;;;;;;;;;5014992;28;20159;-77
2023/02/03 04:36:38;;;;;;;4.07;1.75;;;;;;;;;;5015066;28;20133;-77
2023/02/03 04:39:06;;;;;;;5.55;1.60;;;;;;;;;;5014699;28;20092;-76
2023/02/03 04:41:33;;;;;;;3.45;1.70;;;;;;;;;;5014894;28;20129;-76
2023/02/03 04:43:59;;;;;;;3.53;1.65;;;;;;;;;;5015200;28;20058;-76
2023/02/03 04:46:26;;;;;;;4.53;1.65;;;;;;;;;;5013754;28;20129;-77
2023/02/03 04:48:52;;;;;;;7.85;2.08;;;;;;;;;;5015423;28;20073;-76
2023/02/03 04:51:19;;;;;;;5.80;2.20;;;;;;;;;;5015405;28;20096;-76
2023/02/03 04:53:45;;;;;;;5.72;2.03;;;;;;;;;;5014306;28;20050;-76
2023/02/03 04:56:14;;;;;;;8.13;2.33;;;;;;;;;;5014197;28;20069;-77
2023/02/03 04:58:41;;;;;;;8.30;2.45;;;;;;;;;;5014706;28;20077;-76
2023/02/03 05:01:09;;;;;;;3.30;1.73;;;;;;;;;;5014328;28;20432;-75
2023/02/03 05:03:36;;;;;;;4.93;2.30;;;;;;;;;;5014623;28;20046;-76
2023/02/03 05:06:03;;;;;;;4.35;2.35;;;;;;;;;;5013397;28;20081;-78
2023/02/03 05:08:30;;;;;;;5.72;2.30;;;;;;;;;;5014334;28;20048;-76
2023/02/03 05:10:57;;;;;;;4.63;1.90;;;;;;;;;;5014557;28;20049;-76
2023/02/03 05:13:24;;;;;;;5.88;2.47;;;;;;;;;;5014050;28;20133;-77
2023/02/03 05:15:51;;;;;;;5.65;1.92;;;;;;;;;;5013696;28;20042;-77
2023/02/03 05:18:18;;;;;;;5.93;2.90;;;;;;;;;;5013865;28;20052;-77
2023/02/03 05:20:44;;;;;;;4.13;1.90;;;;;;;;;;5013622;28;20590;-76
2023/02/03 05:23:11;;;;;;;5.25;2.00;;;;;;;;;;5013891;28;20085;-77
2023/02/03 05:25:38;;;;;;;5.55;2.20;;;;;;;;;;5013647;28;20054;-77
2023/02/03 05:28:04;;;;;;;5.68;2.25;;;;;;;;;;5013704;28;20398;-76
2023/02/03 05:30:32;;;;;;;4.38;2.00;;;;;;;;;;5012668;28;20535;-78
2023/02/03 05:32:59;;;;;;;9.13;2.67;;;;;;;;;;5013805;28;20528;-78
2023/02/03 05:35:25;;;;;;;7.78;2.38;;;;;;;;;;5014694;28;20073;-74
2023/02/03 05:37:52;;;;;;;5.65;2.15;;;;;;;;;;5013601;28;20374;-75
2023/02/03 05:43:03;;;;;;;4.70;2.03;;;;;;;;;;5014021;28;20061;-76
2023/02/03 05:45:31;;;;;;;4.68;2.20;;;;;;;;;;5013809;28;20050;-76
2023/02/03 05:47:58;;;;;;;5.38;2.10;;;;;;;;;;5013295;28;20588;-76
2023/02/03 05:50:25;;;;;;;7.07;3.05;;;;;;;;;;5013584;28;20041;-75
2023/02/03 05:52:52;;;;;;;8.82;2.30;;;;;;;;;;5013330;28;20054;-77
2023/02/03 05:55:18;;;;;;;5.00;2.40;;;;;;;;;;5013363;28;20116;-77
2023/02/03 05:57:45;;;;;;;5.25;1.90;;;;;;;;;;5013446;28;20048;-76
2023/02/03 06:00:13;;;;;;;8.40;2.15;;;;;;;;;;5017584;28;20050;-77
2023/02/03 06:02:41;;;;;;;4.90;2.13;;;;;;;;;;5029565;28;20432;-77
2023/02/03 06:05:08;;;;;;;6.43;2.17;;;;;;;;;;5023464;28;20452;-77
2023/02/03 06:07:35;;;;;;;4.18;2.20;;;;;;;;;;5003776;28;20056;-77
2023/02/03 06:10:02;;;;;;;6.75;2.20;;;;;;;;;;5014756;28;20054;-78
2023/02/03 06:12:29;;;;;;;5.03;2.13;;;;;;;;;;5012993;28;20088;-77
2023/02/03 06:14:55;;;;;;;6.50;2.33;;;;;;;;;;5013039;28;20120;-77
2023/02/03 06:17:22;;;;;;;5.30;2.00;;;;;;;;;;5012815;28;20049;-77
2023/02/03 06:19:50;;;;;;;6.20;1.65;;;;;;;;;;5013275;28;20045;-78
2023/02/03 06:22:17;;;;;;;3.40;1.77;;;;;;;;;;5012550;28;20066;-78
2023/02/03 06:24:45;;;;;;;4.13;1.98;;;;;;;;;;5012102;28;20046;-77
2023/02/03 06:27:12;;;;;;;5.78;1.80;;;;;;;;;;5013231;28;20132;-77
2023/02/03 06:29:38;;;;;;;4.57;1.80;;;;;;;;;;5012747;28;20137;-77
2023/02/03 06:32:07;;;;;;;5.30;1.70;;;;;;;;;;5013013;28;20057;-75
2023/02/03 06:34:33;;;;;;;7.75;2.38;;;;;;;;;;5012263;28;20073;-77
2023/02/03 06:37:01;;;;;;;3.50;1.58;;;;;;;;;;5013127;28;20050;-77
2023/02/03 06:39:28;;;;;;;4.63;2.03;;;;;;;;;;5012598;28;20221;-76
2023/02/03 06:41:55;;;;;;;3.70;1.50;;;;;;;;;;5012954;28;20054;-77
2023/02/03 06:44:22;;;;;;;6.40;1.60;;;;;;;;;;5013099;28;20050;-77
2023/02/03 06:46:50;;;;;;;5.05;1.67;;;;;;;;;;5013562;28;20046;-77
2023/02/03 06:49:16;;;;;;;4.38;2.10;;;;;;;;;;5013991;28;20128;-77
2023/02/03 06:51:43;;;;;;;4.38;1.80;;;;;;;;;;5014052;28;20417;-76
2023/02/03 06:54:12;;;;;;;5.00;1.70;;;;;;;;;;5014330;28;20049;-77
2023/02/03 06:56:39;;;;;;;5.30;1.75;;;;;;;;;;5017912;28;20483;-76
2023/02/03 06:59:07;;;;;;;4.45;1.83;;;;;;;;;;5024599;28;20038;-76
2023/02/03 07:01:34;;;;;;;4.05;1.75;;;;;;;;;;5029847;28;20057;-76
2023/02/03 07:04:01;;;;;;;5.00;1.80;;;;;;;;;;5029125;28;20038;-77
2023/02/03 07:06:29;;;;;;;6.28;2.40;;;;;;;;;;5012910;28;20093;-78
2023/02/03 07:08:56;;;;;;;4.15;2.22;;;;;;;;;;5006599;28;20540;-78
2023/02/03 07:11:25;;;;;;;6.00;2.10;;;;;;;;;;5022527;28;20103;-77
2023/02/03 07:13:52;;;;;;;5.70;2.22;;;;;;;;;;5020987;28;20046;-77
2023/02/03 07:16:19;;;;;;;5.68;1.83;;;;;;;;;;5024749;28;20121;-77
2023/02/03 07:18:46;;;;;;;5.88;1.80;;;;;;;;;;5025449;28;20113;-76
2023/02/03 07:21:13;;;;;;;4.78;1.63;;;;;;;;;;5026390;28;20050;-78
2023/02/03 07:23:40;;;;;;;5.43;2.45;;;;;;;;;;5021502;28;20049;-76
2023/02/03 07:26:08;;;;;;;5.70;1.90;;;;;;;;;;5021236;28;20050;-77
2023/02/03 07:28:36;;;;;;;5.80;1.77;;;;;;;;;;5021924;28;20054;-77
2023/02/03 07:31:06;;;;;;;5.97;1.83;;;;;;;;;;5019681;28;20046;-77
2023/02/03 07:33:33;;;;;;;5.70;1.85;;;;;;;;;;5013562;28;20057;-77
2023/02/03 07:36:00;;;;;;;3.97;1.65;;;;;;;;;;5015893;28;20053;-77
2023/02/03 07:38:28;;;;;;;5.53;1.73;;;;;;;;;;5015146;28;20096;-77
2023/02/03 07:40:55;;;;;;;4.50;1.60;;;;;;;;;;5015780;28;20046;-77
2023/02/03 07:43:22;;;;;;;6.03;2.38;;;;;;;;;;5015817;28;20062;-78
2023/02/03 07:45:50;;;;;;;3.33;1.45;;;;;;;;;;5015254;28;20050;-78
2023/02/03 07:48:17;;;;;;;5.32;1.67;;;;;;;;;;5013467;28;20131;-76
2023/02/03 07:50:44;;;;;;;4.72;1.80;;;;;;;;;;5015297;28;20061;-78
2023/02/03 07:53:11;;;;;;;4.78;1.58;;;;;;;;;;5015927;28;20132;-77
2023/02/03 07:55:46;;;;;;;3.85;1.45;;;;;;;;;;5019480;28;20054;-78
2023/02/03 07:58:13;;;;;;;4.50;1.52;;;;;;;;;;5019969;28;20068;-78
2023/02/03 08:00:42;;;;;;;3.95;1.58;;;;;;;;;;5022636;28;20081;-78
2023/02/03 08:03:10;;;;;;;3.70;1.63;;;;;;;;;;5023861;28;20046;-78
2023/02/03 08:05:37;;;;;;;4.60;1.70;;;;;;;;;;5019904;28;20057;-78
2023/02/03 08:08:04;;;;;;;3.60;1.40;;;;;;;;;;5014692;28;20041;-78
2023/02/03 08:10:31;;;;;;;4.70;1.55;;;;;;;;;;5013067;28;20153;-78
2023/02/03 08:12:57;;;;;;;3.47;1.40;;;;;;;;;;5012696;28;20096;-78
2023/02/03 08:15:24;;;;;;;5.57;1.73;;;;;;;;;;5013312;28;20133;-79
2023/02/03 08:17:52;;;;;;;6.88;2.58;;;;;;;;;;5014168;28;20077;-77
2023/02/03 08:20:20;;;;;;;3.60;1.80;;;;;;;;;;5014683;28;20085;-78
2023/02/03 08:22:47;;;;;;;3.53;1.45;;;;;;;;;;5017532;28;20042;-78
2023/02/03 08:25:13;;;;;;;2.88;1.35;;;;;;;;;;5021376;28;20061;-78
2023/02/03 08:27:41;;;;;;;4.93;1.27;;;;;;;;;;5021761;28;20058;-79
2023/02/03 08:30:11;;;;;;;3.25;1.35;;;;;;;;;;5024020;28;20050;-78
2023/02/03 08:32:38;;;;;;;6.85;1.60;;;;;;;;;;5020551;28;20540;-78
2023/02/03 08:35:06;;;;;;;4.20;1.40;;;;;;;;;;5017430;28;20133;-77
2023/02/03 08:37:34;;;;;;;4.25;1.30;;;;;;;;;;5004977;28;20060;-77
2023/02/03 08:40:01;;;;;;;4.28;1.40;;;;;;;;;;4999308;28;20081;-78
2023/02/03 08:42:28;;;;;;;2.30;1.13;;;;;;;;;;5009892;28;20054;-77
2023/02/03 08:44:55;;;;;;;4.32;1.45;;;;;;;;;;5016674;28;20046;-79
2023/02/03 08:47:21;;;;;;;3.45;1.23;;;;;;;;;;5017760;28;20050;-76
2023/02/03 08:49:48;;;;;;;4.10;1.40;;;;;;;;;;5017141;28;20077;-78
2023/02/03 08:52:15;;;;;;;4.28;1.60;;;;;;;;;;5014040;28;20038;-87
2023/02/03 08:54:43;;;;;;;2.72;1.35;;;;;;;;;;5017191;28;20081;-78
2023/02/03 08:57:11;;;;;;;3.15;1.48;;;;;;;;;;5021090;28;20038;-78
2023/02/03 08:59:40;;;;;;;4.45;1.35;;;;;;;;;;5024337;28;20053;-77
2023/02/03 09:02:13;;;;;;;3.97;1.40;;;;;;;;;;5021851;28;20042;-79
2023/02/03 09:04:39;;;;;;;4.38;1.48;;;;;;;;;;5021613;28;20467;-78
2023/02/03 09:07:06;;;;;;;4.40;1.20;;;;;;;;;;5020289;28;20114;-79
2023/02/03 09:09:33;;;;;;;4.75;1.40;;;;;;;;;;5022288;28;20050;-78
2023/02/03 09:12:04;;;;;;;4.85;1.65;;;;;;;;;;5016043;28;20042;-78
2023/02/03 09:14:31;;;;;;;5.07;1.38;;;;;;;;;;5033156;28;20203;-78
2023/02/03 09:16:58;;;;;;;3.42;1.25;;;;;;;;;;5023271;28;20080;-78
2023/02/03 09:19:25;;;;;;;3.38;1.65;;;;;;;;;;5017737;28;20540;-79
2023/02/03 09:21:52;;;;;;;5.35;1.30;;;;;;;;;;5014486;28;20053;-79
2023/02/03 09:24:18;;;;;;;3.20;1.33;;;;;;;;;;5017111;28;20068;-79
2023/02/03 09:26:45;;;;;;;3.35;1.65;;;;;;;;;;5014284;28;20465;-78
2023/02/03 09:29:13;;;;;;;2.92;1.02;;;;;;;;;;5014663;28;20082;-79
2023/02/03 09:31:45;;;;;;;3.42;1.30;;;;;;;;;;5014021;28;20069;-78
2023/02/03 09:34:12;;;;;;;2.35;1.20;;;;;;;;;;5013451;28;20535;-78
2023/02/03 09:36:39;;;;;;;3.55;1.60;;;;;;;;;;5012682;28;20120;-78
2023/02/03 09:39:06;;;;;;;3.80;1.10;;;;;;;;;;5014787;28;20120;-82
2023/02/03 09:41:51;;;;;;;2.92;1.25;;;;;;;;;;5019807;28;20117;-84
2023/02/03 09:44:24;;;;;;;5.45;1.70;;;;;;;;;;5015676;28;20408;-82
2023/02/03 09:46:55;;;;;;;2.72;1.25;;;;;;;;;;5015757;28;20081;-78
2023/02/03 09:49:26;;;;;;;3.88;1.10;;;;;;;;;;5015317;28;20053;-80
2023/02/03 09:51:55;;;;;;;3.33;1.10;;;;;;;;;;5017482;28;20588;-86
2023/02/03 09:54:27;;;;;;;4.82;1.48;;;;;;;;;;5019416;28;20078;-80
2023/02/03 09:56:54;;;;;;;5.13;1.40;;;;;;;;;;5059978;22;20051;-64
2023/02/03 09:59:23;;;;;;;2.80;1.52;;;;;;;;;;5023587;28;20042;-57
2023/02/03 10:01:57;;;;;;;4.00;1.70;;;;;;;;;;5012116;28;20137;-49
2023/02/03 10:04:32;;;;;;;2.67;1.00;;;;;;;;;;5012349;28;20189;-48
2023/02/03 10:07:09;;;;;;;3.30;1.75;;;;;;;;;;5012009;28;20461;-51
2023/02/03 10:09:47;;;;;;;5.70;1.27;;;;;;;;;;5012051;28;20038;-48
2023/02/03 10:12:32;;;;;;;3.10;1.50;;;;;;;;;;5011972;28;20491;-48
2023/02/03 10:15:20;;;;;;;4.07;1.85;;;;;;;;;;5008079;28;20053;-49
2023/02/03 10:17:55;;;;;;;4.22;1.58;;;;;;;;;;5012252;28;20049;-48
2023/02/03 10:20:26;;;;;;;6.88;3.22;;;;;;;;;;5011697;28;20124;-47
2023/02/03 10:22:56;;;;;;;4.38;1.67;;;;;;;;;;5012313;28;20136;-50
2023/02/03 10:25:29;;;;;;;3.40;1.30;;;;;;;;;;5011790;28;20388;-48
2023/02/03 10:27:59;;;;;;;5.40;1.80;;;;;;;;;;5007752;28;20078;-49
2023/02/03 10:30:31;;;;;;;5.03;1.50;;;;;;;;;;5010416;28;20052;-49
2023/02/03 10:33:02;;;;;;;5.80;1.80;;;;;;;;;;5002781;28;20112;-49
2023/02/03 10:35:36;;;;;;;2.75;1.30;;;;;;;;;;4992119;28;20494;-51
2023/02/03 10:38:06;;;;;;;3.25;1.35;;;;;;;;;;4992599;28;20053;-51
2023/02/03 10:40:33;;;;;;;4.05;1.50;;;;;;;;;;4992051;28;20491;-48
2023/02/03 10:45:45;;;;;;;3.88;1.52;;;;;;;;;;5009563;28;20057;-49
2023/02/03 10:48:17;;;;;;;5.10;1.38;;;;;;;;;;5010490;28;20043;-49
2023/02/03 10:50:48;;;;;;;4.40;1.45;;;;;;;;;;5010458;28;20046;-48
2023/02/03 10:53:22;;;;;;;3.88;1.65;;;;;;;;;;5009790;28;20100;-48
2023/02/03 10:55:51;;;;;;;4.55;1.85;;;;;;;;;;5009625;28;20092;-49
2023/02/03 10:58:25;;;;;;;4.35;1.63;;;;;;;;;;5010195;28;20045;-51
2023/02/03 11:00:58;;;;;;;4.20;1.65;;;;;;;;;;5001805;28;20053;-50
2023/02/03 11:03:28;;;;;;;3.25;1.52;;;;;;;;;;5010588;28;20053;-50
2023/02/03 11:06:13;;;;;;;3.45;1.50;;;;;;;;;;5000651;28;20423;-49
2023/02/03 11:08:41;;;;;;;3.92;1.38;;;;;;;;;;5004327;28;20038;-51
2023/02/03 11:11:13;;;;;;;4.25;1.60;;;;;;;;;;5011019;28;20392;-48
2023/02/03 11:13:40;;;;;;;5.78;1.70;;;;;;;;;;5011016;28;20065;-49
2023/02/03 11:16:14;;;;;;;4.88;1.50;;;;;;;;;;5010949;28;20058;-50
2023/02/03 11:18:47;;;;;;;5.57;2.05;;;;;;;;;;5010861;28;20058;-47
2023/02/03 11:21:17;;;;;;;4.10;1.55;;;;;;;;;;5010743;28;20100;-48
2023/02/03 11:23:57;;;;;;;4.13;1.58;;;;;;;;;;5010985;28;20049;-48
2023/02/03 11:26:27;;;;;;;5.82;1.88;;;;;;;;;;5010768;28;20058;-51
2023/02/03 11:28:58;;;;;;;4.47;1.52;;;;;;;;;;5011508;28;20120;-47
2023/02/03 11:31:29;;;;;;;4.85;1.85;;;;;;;;;;5009511;28;20404;-50
2023/02/03 11:33:57;;;;;;;;;;;;;;;;;;5010897;28;20096;-47
2023/02/03 11:36:27;;;;;;;4.90;1.20;;;;;;;;;;5010662;28;19948;-48
2023/02/03 11:39:09;;;;;;;2.92;1.40;;;;;;;;;;5010565;28;20482;-50
2023/02/03 11:41:38;;;;;;;4.28;1.58;;;;;;;;;;5010383;28;20046;-48
2023/02/03 11:44:12;;;;;;;5.10;1.50;;;;;;;;;;5010651;28;20057;-48
2023/02/03 11:46:40;;;;;;;3.78;1.60;;;;;;;;;;5011082;28;20128;-50
2023/02/03 11:49:20;;;;;;;3.13;1.40;;;;;;;;;;5010624;28;20509;-51
2023/02/03 11:51:55;;;;;;;4.18;1.83;;;;;;;;;;5009607;28;20050;-48
2023/02/03 11:54:31;;;;;;;4.25;1.30;;;;;;;;;;4992976;28;20047;-48
2023/02/03 11:57:17;;;;;;;3.13;1.20;;;;;;;;;;5012152;28;20391;-49
2023/02/03 11:59:55;;;;;;;4.85;1.17;;;;;;;;;;5014727;28;20100;-51
2023/02/03 12:02:52;;;;;;;3.03;1.10;;;;;;;;;;5014621;28;20542;-50
2023/02/03 12:05:32;;;;;;;3.90;1.20;;;;;;;;;;5014733;28;20457;-49
2023/02/03 12:08:23;;;;;;;3.78;1.30;;;;;;;;;;5014804;28;20103;-49
2023/02/03 12:10:57;;;;;;;;;;;;;;;;;;5013703;28;20060;-51
2023/02/03 12:13:38;;;;;;;3.65;1.08;;;;;;;;;;5012839;28;19968;-51
2023/02/03 12:16:28;;;;;;;8.68;1.52;;;;;;;;;;5012452;28;20046;-52
2023/02/03 12:19:07;;;;;;;6.30;1.50;;;;;;;;;;5012692;28;20057;-54
2023/02/03 12:21:43;;;;;;;3.05;1.92;;;;;;;;;;5012823;28;20042;-54
2023/02/03 12:24:21;;;;;;;3.05;1.10;;;;;;;;;;5013604;28;20109;-54
2023/02/03 12:26:55;;;;;;;2.10;1.00;;;;;;;;;;5011241;28;20058;-53
2023/02/03 12:29:25;;;;;;;2.88;1.38;;;;;;;;;;5013603;28;20491;-54
2023/02/03 12:32:00;;;;;;;5.07;1.30;;;;;;;;;;5011657;28;20053;-51
2023/02/03 12:34:33;;;;;;;4.22;1.35;;;;;;;;;;5012799;28;20046;-51
2023/02/03 12:37:05;;;;;;;2.50;1.38;;;;;;;;;;5011439;28;20046;-53
2023/02/03 12:39:40;;;;;;;3.75;1.20;;;;;;;;;;5012113;28;20112;-53
2023/02/03 12:42:15;;;;;;;4.68;1.35;;;;;;;;;;5011567;28;20046;-50
2023/02/03 12:44:48;;;;;;;4.20;1.35;;;;;;;;;;5010271;28;20193;-55
2023/02/03 12:47:22;;;;;;;3.97;1.40;;;;;;;;;;5008259;28;20046;-51
2023/02/03 12:49:55;;;;;;;2.95;1.15;;;;;;;;;;5012537;28;20691;-54
2023/02/03 12:52:26;;;;;;;5.43;1.60;;;;;;;;;;5012342;28;20133;-56
2023/02/03 12:55:01;;;;;;;4.43;1.50;;;;;;;;;;5012729;28;20475;-52
2023/02/03 12:57:34;;;;;;;4.43;1.50;;;;;;;;;;5009972;28;20116;-49
2023/02/03 13:00:10;;;;;;;4.57;1.33;;;;;;;;;;5010595;28;20137;-52
2023/02/03 13:02:44;;;;;;;2.60;1.15;;;;;;;;;;5008033;28;20120;-54
2023/02/03 13:05:22;;;;;;;3.70;1.38;;;;;;;;;;5007285;28;20046;-54
2023/02/03 13:07:53;;;;;;;3.25;1.50;;;;;;;;;;4994009;28;20117;-54
2023/02/03 13:10:29;;;;;;;6.55;1.50;;;;;;;;;;5005175;28;20046;-54
2023/02/03 13:12:57;;;;;;;3.63;1.50;;;;;;;;;;5011632;28;20060;-55
2023/02/03 13:15:28;;;;;;;4.13;1.80;;;;;;;;;;5012498;28;20054;-54
2023/02/03 13:17:59;;;;;;;3.28;1.13;;;;;;;;;;5007219;28;20043;-54
2023/02/03 13:20:30;;;;;;;;;;;;;;;;;;5002212;28;20104;-52
2023/02/03 13:22:56;;;;;;;5.30;1.70;;;;;;;;;;5011438;28;19921;-50
2023/02/03 13:25:25;;;;;;;5.53;1.67;;;;;;;;;;5012213;28;20042;-53
2023/02/03 13:28:06;;;;;;;5.10;1.50;;;;;;;;;;5012055;28;20050;-52
2023/02/03 13:31:06;;;;;;;2.95;1.42;;;;;;;;;;5011777;28;20053;-54
2023/02/03 13:33:59;;;;;;;3.00;1.25;;;;;;;;;;5011251;28;20045;-49
2023/02/03 13:36:44;;;;;;;3.03;1.35;;;;;;;;;;5011889;28;20550;-48
2023/02/03 13:39:31;;;;;;;5.15;1.40;;;;;;;;;;5011759;28;20050;-54
2023/02/03 13:42:21;;;;;;;4.63;1.33;;;;;;;;;;5012036;28;20050;-53
2023/02/03 13:44:51;;;;;;;5.38;1.58;;;;;;;;;;5004713;28;20042;-51
2023/02/03 13:47:22;;;;;;;5.32;1.65;;;;;;;;;;5011108;28;20100;-55
2023/02/03 13:49:54;;;;;;;4.85;1.50;;;;;;;;;;5011667;28;20049;-53
2023/02/03 13:52:28;;;;;;;2.65;1.50;;;;;;;;;;5008711;28;20521;-54
2023/02/03 13:54:56;;;;;;;5.35;1.40;;;;;;;;;;5004011;28;20124;-51
2023/02/03 13:57:33;;;;;;;7.43;1.67;;;;;;;;;;5011184;28;20101;-51
2023/02/03 14:00:01;;;;;;;7.50;1.70;;;;;;;;;;5009153;28;20108;-53
2023/02/03 14:02:52;;;;;;;4.60;1.38;;;;;;;;;;5009544;28;20056;-54
2023/02/03 14:05:43;;;;;;;3.97;1.20;;;;;;;;;;5007835;28;20537;-55
2023/02/03 14:08:50;;;;;;;5.25;1.38;;;;;;;;;;5008400;28;20549;-53
2023/02/03 14:11:44;;;;;;;3.30;1.20;;;;;;;;;;4947313;29;20073;-52
2023/02/03 14:14:43;;;;;;;3.50;1.30;;;;;;;;;;4950064;29;20059;-52
2023/02/03 14:17:58;;;;;;;4.88;1.38;;;;;;;;;;5004348;28;20751;-54
2023/02/03 14:20:57;;;;;;;2.00;1.17;;;;;;;;;;4936715;29;20050;-51
2023/02/03 14:23:37;;;;;;;3.78;1.27;;;;;;;;;;4938582;29;20110;-54
2023/02/03 14:26:06;;;;;;;3.80;1.60;;;;;;;;;;4996039;28;20060;-50
2023/02/03 14:28:40;;;;;;;2.38;1.08;;;;;;;;;;5010920;28;20053;-56
2023/02/03 14:31:11;;;;;;;6.13;1.60;;;;;;;;;;5011243;28;20407;-65
2023/02/03 14:33:56;;;;;;;;;;;;;;;;;;5011641;28;20049;-53
2023/02/03 14:36:35;;;;;;;3.42;1.05;;;;;;;;;;5011546;28;19964;-54
2023/02/03 14:39:05;;;;;;;2.95;1.73;;;;;;;;;;5010736;28;20042;-55
2023/02/03 14:41:49;;;;;;;2.85;1.15;;;;;;;;;;5010020;28;20049;-51
2023/02/03 14:44:31;;;;;;;3.40;1.30;;;;;;;;;;5010360;28;20095;-54
2023/02/03 14:47:10;;;;;;;4.30;1.40;;;;;;;;;;5010748;28;20054;-50
2023/02/03 14:49:55;;;;;;;4.28;1.20;;;;;;;;;;5010543;28;20519;-52
2023/02/03 14:52:40;;;;;;;3.08;1.20;;;;;;;;;;5009621;28;20104;-64
2023/02/03 14:55:27;;;;;;;2.45;1.20;;;;;;;;;;5004804;28;20052;-53
2023/02/03 14:58:00;;;;;;;3.03;1.35;;;;;;;;;;4993886;28;20514;-52
2023/02/03 15:00:33;;;;;;;3.90;1.13;;;;;;;;;;5010104;28;20450;-49
2023/02/03 15:03:21;;;;;;;3.10;1.40;;;;;;;;;;5010436;28;20046;-53
2023/02/03 15:05:50;;;;;;;5.03;1.85;;;;;;;;;;5001003;28;20058;-52
2023/02/03 15:08:35;;;;;;;7.38;2.05;;;;;;;;;;5009469;28;20546;-54
2023/02/03 15:11:30;;;;;;;3.35;1.23;;;;;;;;;;5005320;28;20161;-51
2023/02/03 15:14:18;;;;;;;3.67;1.48;;;;;;;;;;5008966;28;20499;-53
2023/02/03 15:16:45;;;;;;;3.22;1.35;;;;;;;;;;5002736;28;20049;-53
2023/02/03 15:19:18;;;;;;;4.35;1.42;;;;;;;;;;5017986;28;20631;-50